Time;durP1;ratioP1;P1;durP2;ratioP2;P2;SDS_P1;SDS_P2;PMS_P1;PMS_P2;Temp;Humidity;BMP_temperature;BMP_pressure;BME280_temperature;BME280_humidity;BME280_pressure;Samples;Min_cycle;Max_cycle;Signal;HPM_P1;HPM_P2
2023/09/11 00:00:48;;;;;;;8.77;7.77;;;;;;;13.03;100.00;97677.25;6174117;28;20232;-90
2023/09/11 00:03:51;;;;;;;8.30;7.50;;;;;;;13.58;100.00;97755.50;6172865;28;20228;-89
2023/09/11 00:06:53;;;;;;;8.40;7.60;;;;;;;13.46;100.00;97744.19;6189957;28;20826;-89
2023/09/11 00:09:55;;;;;;;8.43;7.63;;;;;;;13.11;100.00;97684.03;6161684;28;20351;-89
2023/09/11 00:12:57;;;;;;;8.50;7.70;;;;;;;12.49;100.00;97599.91;6190885;28;20290;-90
2023/09/11 00:15:59;;;;;;;8.70;7.77;;;;;;;14.15;100.00;97838.56;6189167;28;20225;-89
2023/09/11 00:19:02;;;;;;;9.03;7.60;;;;;;;12.00;100.00;97495.88;6173074;28;20589;-89
2023/09/11 00:22:05;;;;;;;8.37;7.67;;;;;;;13.40;100.00;97738.00;6190866;28;20642;-88
2023/09/11 00:25:08;;;;;;;9.73;8.83;;;;;;;12.44;100.00;97639.13;6189324;28;20224;-91
2023/09/11 00:28:11;;;;;;;8.83;7.47;;;;;;;13.47;100.00;97772.56;6173930;28;20229;-89
2023/09/11 00:31:13;;;;;;;9.00;8.10;;;;;;;13.31;100.00;97750.25;6190239;28;20246;-89
2023/09/11 00:34:15;;;;;;;9.10;8.27;;;;;;;12.65;100.00;97644.38;6174241;28;20243;-90
2023/09/11 00:37:17;;;;;;;8.80;8.00;;;;;;;13.24;100.00;97739.75;6172994;28;20228;-89
2023/09/11 00:40:19;;;;;;;9.27;8.47;;;;;;;12.96;100.00;97703.44;6174519;28;20587;-89
2023/09/11 00:43:21;;;;;;;10.07;7.83;;;;;;;12.32;100.00;97605.38;6172476;28;20244;-89
2023/09/11 00:46:24;;;;;;;9.37;8.50;;;;;;;12.53;100.00;97670.47;6171936;28;20472;-89
2023/09/11 00:49:28;;;;;;;8.67;7.97;;;;;;;12.27;100.00;97594.66;6189204;28;20343;-88
2023/09/11 00:52:30;;;;;;;8.73;8.03;;;;;;;13.85;100.00;97835.72;6169491;28;20605;-88
2023/09/11 00:55:34;;;;;;;8.97;7.93;;;;;;;11.90;100.00;97557.22;6187456;28;20232;-88
2023/09/11 00:58:37;;;;;;;8.67;7.87;;;;;;;12.95;100.00;97723.19;6189539;28;20229;-89
2023/09/11 01:01:44;;;;;;;9.50;8.60;;;;;;;13.68;100.00;97812.56;6175016;28;20601;-89
2023/09/11 01:04:48;;;;;;;10.00;9.10;;;;;;;12.88;100.00;97710.06;6173589;28;20252;-88
2023/09/11 01:07:50;;;;;;;9.60;8.70;;;;;;;13.26;100.00;97753.69;6171540;28;20757;-89
2023/09/11 01:10:52;;;;;;;10.73;9.17;;;;;;;12.72;100.00;97664.75;6173421;28;20244;-88
2023/09/11 01:13:55;;;;;;;9.60;8.70;;;;;;;13.02;100.00;97723.81;6190787;28;20228;-89
2023/09/11 01:17:03;;;;;;;9.80;8.80;;;;;;;13.16;100.00;97738.34;6186389;28;20251;-89
2023/09/11 01:20:14;;;;;;;9.57;8.77;;;;;;;13.70;100.00;97827.59;6193082;28;20315;-91
2023/09/11 01:24:02;;;;;;;9.97;8.97;;;;;;;13.13;100.00;97738.03;6189544;28;20225;-92
2023/09/11 01:27:29;;;;;;;9.50;8.63;;;;;;;13.63;100.00;97823.25;6173672;28;20666;-91
2023/09/11 01:30:33;;;;;;;8.90;8.10;;;;;;;12.76;100.00;97717.44;6171354;28;20238;-91
2023/09/11 01:33:36;;;;;;;9.80;8.43;;;;;;;13.65;100.00;97814.97;6164800;28;20312;-91
2023/09/11 01:36:40;;;;;;;8.80;8.10;;;;;;;12.75;100.00;97690.94;6164929;28;20237;-91
2023/09/11 01:39:43;;;;;;;9.47;8.57;;;;;;;11.61;100.00;97532.59;6163780;28;20247;-92
2023/09/11 01:42:50;;;;;;;8.50;7.70;;;;;;;13.59;100.00;97824.00;6179038;28;20256;-91
2023/09/11 01:45:53;;;;;;;10.03;9.03;;;;;;;12.07;100.00;97603.31;6164376;28;20583;-91
2023/09/11 01:48:58;;;;;;;9.30;8.50;;;;;;;12.56;100.00;97671.81;6179458;28;20236;-90
2023/09/11 01:52:01;;;;;;;10.03;9.13;;;;;;;12.74;100.00;97700.84;6176104;28;20239;-91
2023/09/11 01:55:08;;;;;;;9.60;8.60;;;;;;;12.29;100.00;97615.75;6172738;28;20575;-91
2023/09/11 01:58:11;;;;;;;9.80;8.80;;;;;;;12.21;100.00;97624.22;6162740;28;20239;-91
2023/09/11 02:01:13;;;;;;;13.30;11.93;;;;;;;13.29;100.00;97784.47;6163357;28;20233;-91
2023/09/11 02:04:15;;;;;;;18.00;15.53;;;;;;;11.85;100.00;97554.50;6178463;28;20291;-90
2023/09/11 02:07:17;;;;;;;16.30;13.40;;;;;;;12.72;100.00;97680.78;6178830;28;20269;-91
2023/09/11 02:10:20;;;;;;;12.23;11.03;;;;;;;11.81;100.00;97575.50;6182750;28;20742;-90
2023/09/11 02:13:22;;;;;;;9.90;9.00;;;;;;;13.44;100.00;97811.34;6179365;28;20235;-91
2023/09/11 02:16:24;;;;;;;9.63;8.63;;;;;;;12.64;100.00;97698.91;6179779;28;20235;-91
2023/09/11 02:19:26;;;;;;;10.00;9.10;;;;;;;13.07;100.00;97769.31;6178992;28;20639;-91
2023/09/11 02:22:28;;;;;;;9.27;8.40;;;;;;;12.03;100.00;97604.06;6179570;28;20255;-92
2023/09/11 02:25:30;;;;;;;9.77;8.50;;;;;;;12.50;100.00;97696.88;6178535;28;20238;-91
2023/09/11 02:28:33;;;;;;;9.40;8.50;;;;;;;12.09;100.00;97605.72;6163647;28;20239;-91
2023/09/11 02:31:37;;;;;;;8.77;7.87;;;;;;;12.59;100.00;97708.72;6150203;28;20238;-91
2023/09/11 02:34:39;;;;;;;8.87;7.83;;;;;;;12.50;100.00;97672.84;6129297;28;20236;-92
2023/09/11 02:37:41;;;;;;;9.00;8.20;;;;;;;12.20;100.00;97636.78;6135982;28;20233;-91
2023/09/11 02:40:45;;;;;;;7.50;6.87;;;;;;;11.93;100.00;97593.28;6131607;28;20230;-91
2023/09/11 02:44:05;;;;;;;8.07;7.27;;;;;;;11.98;100.00;97606.69;6129125;28;20235;-92
2023/09/11 02:47:07;;;;;;;9.23;8.43;;;;;;;13.14;100.00;97775.22;6134402;28;20230;-91
2023/09/11 02:50:09;;;;;;;9.17;7.83;;;;;;;11.95;100.00;97601.84;6133034;28;20230;-91
2023/09/11 02:53:13;;;;;;;11.10;8.20;;;;;;;12.39;100.00;97686.13;6138910;28;20235;-92
2023/09/11 02:56:17;;;;;;;8.80;7.97;;;;;;;12.32;100.00;97682.06;6152574;28;20725;-90
2023/09/11 02:59:19;;;;;;;11.77;9.07;;;;;;;12.56;100.00;97715.41;6152300;28;20306;-92
2023/09/11 03:02:22;;;;;;;9.53;8.63;;;;;;;12.28;100.00;97678.25;6151427;28;20229;-93
2023/09/11 03:05:24;;;;;;;10.33;8.30;;;;;;;12.45;100.00;97708.34;6142162;28;20224;-92
2023/09/11 03:08:27;;;;;;;10.17;9.27;;;;;;;11.50;100.00;97562.91;6149920;28;20221;-92
2023/09/11 03:11:31;;;;;;;9.30;8.40;;;;;;;12.21;100.00;97683.00;6134964;28;20274;-92
2023/09/11 03:14:34;;;;;;;8.93;8.07;;;;;;;11.61;100.00;97576.09;6150626;28;20230;-92
2023/09/11 03:17:37;;;;;;;9.43;8.43;;;;;;;12.18;100.00;97659.47;6153715;28;20241;-92
2023/09/11 03:20:40;;;;;;;8.97;8.17;;;;;;;11.84;100.00;97596.41;6140292;28;20261;-92
2023/09/11 03:23:42;;;;;;;8.53;7.73;;;;;;;12.50;100.00;97705.72;6155322;28;20239;-92
2023/09/11 03:26:47;;;;;;;8.43;7.63;;;;;;;11.87;100.00;97589.72;6151702;28;20350;-92
2023/09/11 03:29:52;;;;;;;7.87;7.17;;;;;;;12.97;100.00;97771.09;6168361;28;20770;-92
2023/09/11 03:32:55;;;;;;;9.50;8.50;;;;;;;11.83;100.00;97613.47;6182678;28;20746;-91
2023/09/11 03:35:59;;;;;;;8.80;8.00;;;;;;;12.47;100.00;97713.44;6178786;28;20245;-92
2023/09/11 03:39:03;;;;;;;9.70;8.80;;;;;;;12.06;100.00;97672.94;6182145;28;20374;-92
2023/09/11 03:42:06;;;;;;;10.33;9.30;;;;;;;11.42;100.00;97566.81;6183874;28;20213;-93
2023/09/11 03:45:08;;;;;;;10.83;9.83;;;;;;;12.35;100.00;97721.59;6184120;28;20221;-92
2023/09/11 03:48:11;;;;;;;10.67;9.67;;;;;;;11.77;100.00;97632.31;6188554;28;20213;-94
2023/09/11 03:51:13;;;;;;;10.80;9.03;;;;;;;11.77;100.00;97618.97;6182815;28;20224;-93
2023/09/11 03:54:16;;;;;;;10.10;9.20;;;;;;;12.88;100.00;97810.84;6161606;28;20218;-93
2023/09/11 03:57:18;;;;;;;10.00;9.10;;;;;;;11.67;100.00;97634.84;6168637;28;20206;-93
2023/09/11 04:00:22;;;;;;;10.93;9.87;;;;;;;12.88;100.00;97795.59;6184350;28;20264;-93
2023/09/11 04:03:24;;;;;;;9.57;8.67;;;;;;;12.08;100.00;97701.03;6166155;28;20233;-93
2023/09/11 04:06:27;;;;;;;9.90;9.00;;;;;;;11.67;100.00;97610.84;6183575;28;20316;-92
2023/09/11 04:09:30;;;;;;;9.97;9.07;;;;;;;11.79;100.00;97647.03;6182743;28;20228;-93
2023/09/11 04:12:33;;;;;;;9.53;8.73;;;;;;;11.39;100.00;97571.88;6166915;28;20233;-93
2023/09/11 04:15:36;;;;;;;10.50;9.50;;;;;;;11.33;100.00;97587.81;6166592;28;20233;-92
2023/09/11 04:18:38;;;;;;;10.13;9.13;;;;;;;12.13;100.00;97690.41;6182612;28;20235;-93
2023/09/11 04:21:41;;;;;;;10.57;9.47;;;;;;;11.94;100.00;97667.78;6181700;28;20233;-93
2023/09/11 04:24:43;;;;;;;10.50;9.50;;;;;;;12.05;100.00;97692.72;6186545;28;20235;-93
2023/09/11 04:27:45;;;;;;;11.57;10.47;;;;;;;12.57;100.00;97777.69;6182774;28;20229;-93
2023/09/11 04:30:48;;;;;;;11.60;10.53;;;;;;;11.82;100.00;97651.91;6181305;28;20264;-93
2023/09/11 04:33:50;;;;;;;11.33;10.23;;;;;;;12.18;100.00;97719.03;6182851;28;20243;-93
2023/09/11 04:36:53;;;;;;;11.40;10.30;;;;;;;10.74;100.00;97488.19;6176888;28;20283;-93
2023/09/11 04:39:55;;;;;;;11.20;10.17;;;;;;;12.28;100.00;97723.69;6166643;28;20241;-92
2023/09/11 04:42:57;;;;;;;10.53;9.53;;;;;;;12.78;100.00;97798.19;6182055;28;20233;-93
2023/09/11 04:45:59;;;;;;;10.17;9.37;;;;;;;11.95;100.00;97668.56;6182719;28;20308;-92
2023/09/11 04:49:02;;;;;;;10.60;9.60;;;;;;;11.36;100.00;97583.81;6183125;28;20316;-92
2023/09/11 04:52:05;;;;;;;11.00;10.00;;;;;;;11.42;100.00;97585.50;6182393;28;20751;-91
2023/09/11 04:55:08;;;;;;;13.93;10.80;;;;;;;12.81;100.00;97797.69;6183466;28;20684;-93
2023/09/11 04:58:11;;;;;;;12.03;10.83;;;;;;;11.50;100.00;97594.94;6181855;28;20256;-92
2023/09/11 05:01:13;;;;;;;11.73;10.63;;;;;;;12.84;100.00;97807.88;6164690;28;20225;-92
2023/09/11 05:04:19;;;;;;;11.33;10.33;;;;;;;11.03;100.00;97510.94;6180803;28;20600;-93
2023/09/11 05:07:22;;;;;;;11.00;9.67;;;;;;;12.13;100.00;97703.75;6181152;28;20594;-92
2023/09/11 05:10:24;;;;;;;10.60;9.60;;;;;;;12.57;100.00;97742.94;6165306;28;20722;-92
2023/09/11 05:13:26;;;;;;;10.80;9.80;;;;;;;12.12;100.00;97663.97;6188640;28;20240;-92
2023/09/11 05:16:29;;;;;;;10.23;9.33;;;;;;;12.30;100.00;97724.22;6166994;28;20233;-93
2023/09/11 05:19:32;;;;;;;11.50;10.40;;;;;;;11.52;100.00;97585.59;6180166;28;20319;-93
2023/09/11 05:22:34;;;;;;;12.13;10.73;;;;;;;11.07;100.00;97532.53;6181523;28;20236;-93
2023/09/11 05:25:36;;;;;;;12.47;11.17;;;;;;;12.13;100.00;97682.41;6181271;28;20731;-93
2023/09/11 05:28:38;;;;;;;12.43;11.23;;;;;;;12.22;100.00;97676.59;6181683;28;20737;-92
2023/09/11 05:31:41;;;;;;;11.77;10.67;;;;;;;11.71;100.00;97635.97;6178579;28;20749;-93
2023/09/11 05:34:43;;;;;;;12.93;11.63;;;;;;;13.15;100.00;97818.81;6188451;28;20231;-93
2023/09/11 05:37:46;;;;;;;13.67;12.10;;;;;;;13.02;100.00;97785.31;6187953;28;20787;-94
2023/09/11 05:40:48;;;;;;;12.33;11.23;;;;;;;11.36;100.00;97549.16;6188162;28;20311;-95
2023/09/11 05:43:50;;;;;;;14.77;12.77;;;;;;;13.00;100.00;97768.69;6174131;28;20231;-94
2023/09/11 05:46:52;;;;;;;12.97;11.77;;;;;;;12.99;100.00;97763.59;6189261;28;20711;-93
2023/09/11 05:50:00;;;;;;;12.73;11.43;;;;;;;12.81;100.00;97746.91;6188131;28;20817;-93
2023/09/11 05:53:02;;;;;;;13.00;11.70;;;;;;;11.95;100.00;97613.31;6187773;28;20438;-93
2023/09/11 05:56:04;;;;;;;12.63;11.43;;;;;;;12.57;100.00;97700.97;6188712;28;20239;-93
2023/09/11 05:59:06;;;;;;;11.93;10.53;;;;;;;13.12;100.00;97771.22;6188945;28;20240;-93
2023/09/11 06:02:09;;;;;;;11.53;10.43;;;;;;;13.12;100.00;97776.56;6169427;28;20232;-92
2023/09/11 06:05:11;;;;;;;11.53;10.53;;;;;;;13.23;100.00;97782.81;6172539;28;20232;-93
2023/09/11 06:08:15;;;;;;;11.57;10.47;;;;;;;12.35;100.00;97633.44;6188134;28;20229;-93
2023/09/11 06:11:17;;;;;;;13.07;11.53;;;;;;;12.27;100.00;97626.72;6189297;28;20235;-93
2023/09/11 06:14:19;;;;;;;12.23;11.13;;;;;;;13.71;100.00;97811.25;6175056;28;20251;-93
2023/09/11 06:17:21;;;;;;;12.57;11.43;;;;;;;12.78;100.00;97661.84;6172991;28;20232;-93
2023/09/11 06:20:43;;;;;;;12.90;11.67;;;;;;;12.38;100.00;97615.03;6172371;28;20233;-91
2023/09/11 06:23:46;;;;;;;13.00;11.73;;;;;;;12.58;100.00;97621.63;6171174;28;20328;-90
2023/09/11 06:27:03;;;;;;;13.67;12.40;;;;;;;14.00;100.00;97826.97;6187470;28;20240;-89
2023/09/11 06:30:05;;;;;;;11.70;10.70;;;;;;;13.49;100.00;97735.63;6202065;28;20240;-92
2023/09/11 06:33:08;;;;;;;10.97;9.93;;;;;;;14.14;100.00;97828.09;6171499;28;20595;-94
2023/09/11 06:36:10;;;;;;;12.33;11.23;;;;;;;13.13;100.00;97660.47;6171873;28;20674;-93
2023/09/11 06:39:12;;;;;;;11.97;10.87;;;;;;;13.42;100.00;97683.16;6187722;28;20705;-92
2023/09/11 06:42:22;;;;;;;11.47;10.47;;;;;;;12.85;100.00;97587.56;6172354;28;20240;-92
2023/09/11 06:45:24;;;;;;;10.63;9.73;;;;;;;13.74;100.00;97718.91;6189623;28;20235;-93
2023/09/11 06:48:27;;;;;;;10.47;9.47;;;;;;;13.40;100.00;97665.75;6185849;28;20710;-93
2023/09/11 06:51:29;;;;;;;11.83;10.43;;;;;;;13.78;100.00;97693.22;6194606;28;20707;-93
2023/09/11 06:54:31;;;;;;;10.93;9.93;;;;;;;14.73;100.00;97822.44;6192754;28;20224;-95
2023/09/11 06:57:34;;;;;;;10.67;9.73;;;;;;;14.84;100.00;97826.75;6192589;28;20705;-94
2023/09/11 07:00:36;;;;;;;11.10;10.10;;;;;;;13.87;100.00;97678.25;6177781;28;20235;-93
2023/09/11 07:03:39;;;;;;;11.03;10.03;;;;;;;13.71;100.00;97615.03;6176592;28;20702;-93
2023/09/11 07:06:42;;;;;;;10.90;9.90;;;;;;;14.02;100.00;97656.06;6190214;28;20766;-93
2023/09/11 07:09:45;;;;;;;9.73;8.93;;;;;;;14.51;100.00;97702.00;6177139;28;20220;-93
2023/09/11 07:12:49;;;;;;;9.60;8.80;;;;;;;15.34;100.00;97821.69;6194033;28;20710;-93
2023/09/11 07:15:56;;;;;;;10.80;9.90;;;;;;;14.22;100.00;97644.59;6197564;28;20308;-92
2023/09/11 07:18:58;;;;;;;11.03;10.03;;;;;;;14.65;100.00;97675.47;6177096;28;20228;-92
2023/09/11 07:22:01;;;;;;;9.77;8.90;;;;;;;14.93;100.00;97688.34;6193286;28;20240;-92
2023/09/11 07:25:04;;;;;;;9.93;9.03;;;;;;;14.83;100.00;97629.34;6177876;28;20590;-93
2023/09/11 07:28:07;;;;;;;8.40;7.70;;;;;;;14.78;100.00;97585.63;6178912;28;20954;-93
2023/09/11 07:31:09;;;;;;;9.87;9.07;;;;;;;15.28;100.00;97640.28;6184325;28;20279;-92
2023/09/11 07:34:14;;;;;;;9.30;8.50;;;;;;;15.26;100.00;97591.41;6184964;28;20248;-92
2023/09/11 07:37:16;;;;;;;9.53;8.63;;;;;;;15.77;100.00;97621.56;6164991;28;20317;-94
2023/09/11 07:40:19;;;;;;;9.17;8.37;;;;;;;15.87;100.00;97636.84;6182944;28;20241;-90
2023/09/11 07:43:21;;;;;;;10.57;9.53;;;;;;;16.24;100.00;97623.69;6182096;28;20247;-89
2023/09/11 07:46:24;;;;;;;8.87;8.07;;;;;;;17.52;100.00;97792.22;6183498;28;20233;-89
2023/09/11 07:49:26;;;;;;;9.43;8.53;;;;;;;17.54;100.00;97763.13;6167193;28;20255;-89
2023/09/11 07:52:29;;;;;;;9.07;8.27;;;;;;;17.17;100.00;97672.19;6168639;28;20603;-90
2023/09/11 07:55:37;;;;;;;8.73;7.93;;;;;;;17.47;100.00;97679.94;6168591;28;20229;-89
2023/09/11 07:58:39;;;;;;;8.10;7.30;;;;;;;18.56;100.00;97818.56;6167503;28;20742;-90
2023/09/11 08:01:42;;;;;;;9.03;8.23;;;;;;;18.05;100.00;97714.06;6182687;28;20225;-89
2023/09/11 08:04:44;;;;;;;8.47;7.67;;;;;;;17.92;98.65;97663.53;6186105;28;20802;-91
2023/09/11 08:07:47;;;;;;;9.67;7.70;;;;;;;17.70;97.42;97599.41;6198853;28;20229;-90
2023/09/11 08:10:49;;;;;;;8.53;7.73;;;;;;;18.50;95.52;97712.63;6183996;28;20229;-89
2023/09/11 08:13:53;;;;;;;8.77;7.97;;;;;;;18.25;94.19;97640.19;6182528;28;20837;-90
2023/09/11 08:16:55;;;;;;;7.73;6.97;;;;;;;18.34;92.51;97634.94;6182551;28;20229;-90
2023/09/11 08:19:57;;;;;;;7.87;7.07;;;;;;;19.66;91.62;97800.22;6183221;28;20717;-90
2023/09/11 08:22:59;;;;;;;8.27;7.47;;;;;;;19.22;88.65;97725.03;6182708;28;20233;-88
2023/09/11 08:26:02;;;;;;;10.67;7.23;;;;;;;20.02;88.03;97807.66;6162522;28;20237;-89
2023/09/11 08:29:04;;;;;;;8.50;7.40;;;;;;;18.49;87.60;97551.06;6172328;28;20762;-90
2023/09/11 08:32:06;;;;;;;8.10;7.30;;;;;;;20.31;86.35;97816.25;6200060;28;20229;-90
2023/09/11 08:35:08;;;;;;;7.63;6.83;;;;;;;19.72;84.77;97709.81;6174062;28;20714;-89
2023/09/11 08:38:11;;;;;;;7.67;6.77;;;;;;;19.93;85.19;97710.19;6174994;28;20224;-89
2023/09/11 08:41:14;;;;;;;8.57;7.80;;;;;;;18.83;83.30;97515.69;6173749;28;20702;-90
2023/09/11 08:44:16;;;;;;;8.97;7.40;;;;;;;19.42;82.77;97591.50;6174124;28;20229;-89
2023/09/11 08:47:27;;;;;;;8.17;7.37;;;;;;;19.73;82.39;97606.00;6208243;28;20240;-89
2023/09/11 08:50:32;;;;;;;7.80;7.00;;;;;;;20.81;82.00;97742.41;6189603;28;20248;-88
2023/09/11 08:53:37;;;;;;;7.67;6.97;;;;;;;20.14;81.71;97642.94;6173833;28;20703;-91
2023/09/11 08:56:40;;;;;;;8.73;7.37;;;;;;;20.25;80.80;97602.97;6159694;28;20244;-92
2023/09/11 08:59:45;;;;;;;9.10;7.57;;;;;;;21.03;80.02;97698.25;6180159;28;20719;-90
2023/09/11 09:02:47;;;;;;;11.50;7.33;;;;;;;21.04;78.81;97695.28;6172731;28;20233;-90
2023/09/11 09:05:49;;;;;;;8.13;7.43;;;;;;;20.76;77.61;97602.53;6188850;28;20745;-88
2023/09/11 09:08:52;;;;;;;9.00;7.47;;;;;;;21.67;73.82;97701.50;6164864;28;20253;-91
2023/09/11 09:11:55;;;;;;;9.60;7.23;;;;;;;21.27;75.34;97622.84;6171620;28;20271;-92
2023/09/11 09:14:58;;;;;;;8.07;7.03;;;;;;;21.32;72.81;97609.19;6172908;28;20362;-92
2023/09/11 09:18:01;;;;;;;8.07;6.45;;;;;;;21.82;74.52;97679.41;6165662;28;20228;-92
2023/09/11 09:21:05;;;;;;;8.60;7.20;;;;;;;22.21;75.05;97715.72;6169538;28;20233;-91
2023/09/11 09:24:17;;;;;;;11.03;7.40;;;;;;;22.00;74.58;97684.84;6189076;28;20201;-91
2023/09/11 09:27:28;;;;;;;9.10;7.30;;;;;;;21.80;73.79;97640.94;6186102;28;20221;-91
2023/09/11 09:30:32;;;;;;;9.00;7.15;;;;;;;22.48;68.71;97690.22;6161590;28;20229;-90
2023/09/11 09:33:35;;;;;;;15.05;7.82;;;;;;;21.98;68.22;97608.41;6172725;28;20637;-92
2023/09/11 09:36:50;;;;;;;11.48;8.70;;;;;;;22.11;63.03;97554.00;6188612;28;20232;-91
2023/09/11 09:39:52;;;;;;;9.38;7.90;;;;;;;23.00;63.89;97675.81;6190602;28;20243;-91
2023/09/11 09:42:54;;;;;;;8.95;8.02;;;;;;;22.79;62.33;97624.84;6172349;28;20228;-90
2023/09/11 09:45:57;;;;;;;8.02;7.15;;;;;;;23.12;61.54;97636.00;6172305;28;20220;-92
2023/09/11 09:48:59;;;;;;;7.35;6.63;;;;;;;23.62;63.67;97691.63;6172115;28;20330;-91
2023/09/11 09:52:03;;;;;;;8.82;7.88;;;;;;;23.19;60.20;97611.00;6173173;28;20396;-91
2023/09/11 09:55:08;;;;;;;11.68;7.75;;;;;;;22.77;60.04;97533.97;6172552;28;20736;-91
2023/09/11 09:58:12;;;;;;;11.80;8.48;;;;;;;23.79;58.83;97669.00;6182672;28;20240;-91
2023/09/11 10:01:17;;;;;;;8.23;7.43;;;;;;;24.28;59.11;97721.06;6188255;28;20319;-92
2023/09/11 10:04:21;;;;;;;7.90;7.20;;;;;;;24.42;58.64;97725.16;6202230;28;20262;-92
2023/09/11 10:07:39;;;;;;;7.28;6.50;;;;;;;24.64;58.85;97751.28;6172200;28;20232;-92
2023/09/11 10:10:41;;;;;;;8.75;7.72;;;;;;;24.20;58.40;97681.91;6159861;28;20240;-91
2023/09/11 10:13:44;;;;;;;8.98;7.53;;;;;;;23.60;57.80;97560.63;6180520;28;20236;-91
2023/09/11 10:16:46;;;;;;;9.52;7.80;;;;;;;23.38;58.02;97523.63;6173195;28;20718;-92
2023/09/11 10:19:50;;;;;;;9.98;8.57;;;;;;;23.62;57.19;97548.25;6189114;28;20228;-92
2023/09/11 10:22:57;;;;;;;8.73;7.13;;;;;;;25.17;56.78;97735.31;6185108;28;20232;-91
2023/09/11 10:26:05;;;;;;;7.68;6.82;;;;;;;24.98;56.76;97694.91;6204384;28;20231;-89
2023/09/11 10:29:11;;;;;;;12.10;8.25;;;;;;;23.71;54.48;97515.59;6186014;28;20655;-91
2023/09/11 10:32:26;;;;;;;8.88;8.07;;;;;;;25.47;55.87;97744.16;6199330;28;20245;-90
2023/09/11 10:35:31;;;;;;;11.77;8.93;;;;;;;25.62;53.92;97726.34;6166831;28;20714;-90
2023/09/11 10:38:35;;;;;;;10.45;7.50;;;;;;;24.51;54.42;97561.69;6187208;28;20232;-91
2023/09/11 10:41:38;;;;;;;9.90;8.02;;;;;;;24.33;53.56;97522.91;6186521;28;20236;-91
2023/09/11 10:44:41;;;;;;;10.60;8.02;;;;;;;23.73;52.99;97403.75;6173499;28;20628;-91
2023/09/11 10:47:53;;;;;;;9.00;8.20;;;;;;;24.77;52.57;97560.63;6175001;28;20243;-90
2023/09/11 10:50:57;;;;;;;8.35;6.47;;;;;;;24.65;53.40;97561.41;6171819;28;20229;-90
2023/09/11 10:53:59;;;;;;;8.55;7.75;;;;;;;24.84;52.71;97560.88;6186374;28;20228;-92
2023/09/11 10:57:02;;;;;;;9.45;7.40;;;;;;;24.71;52.45;97525.41;6175297;28;20778;-91
2023/09/11 11:00:09;;;;;;;10.93;8.30;;;;;;;25.11;50.66;97565.69;6188040;28;20224;-92
2023/09/11 11:03:14;;;;;;;9.05;8.15;;;;;;;24.84;51.14;97544.53;6171298;28;20722;-91
2023/09/11 11:06:17;;;;;;;8.15;7.35;;;;;;;24.43;52.21;97472.69;6187155;28;20225;-90
2023/09/11 11:09:32;;;;;;;13.95;7.35;;;;;;;25.08;51.22;97546.53;6191436;28;20223;-91
2023/09/11 11:12:37;;;;;;;8.75;6.93;;;;;;;25.61;50.74;97637.41;6181782;28;20260;-92
2023/09/11 11:15:39;;;;;;;8.85;7.38;;;;;;;25.18;50.69;97554.25;6186495;28;20236;-91
2023/09/11 11:18:42;;;;;;;10.13;7.93;;;;;;;25.69;50.14;97622.88;6171028;28;20612;-90
2023/09/11 11:21:46;;;;;;;10.50;7.82;;;;;;;26.31;50.33;97697.34;6187516;28;20354;-91
2023/09/11 11:24:54;;;;;;;9.60;7.28;;;;;;;26.34;50.35;97691.97;6168226;28;20746;-90
2023/09/11 11:28:06;;;;;;;10.45;7.43;;;;;;;26.48;49.58;97691.63;6173606;28;20233;-90
2023/09/11 11:31:14;;;;;;;11.90;7.78;;;;;;;26.24;49.63;97654.22;6205565;28;20335;-92
2023/09/11 11:34:19;;;;;;;8.25;7.25;;;;;;;25.62;48.41;97554.47;6169678;28;20232;-93
2023/09/11 11:37:23;;;;;;;11.02;8.10;;;;;;;25.71;48.47;97561.38;6171009;28;20236;-94
2023/09/11 11:40:26;;;;;;;11.73;7.85;;;;;;;25.55;49.27;97535.13;6175372;28;20236;-93
2023/09/11 11:43:31;;;;;;;9.60;7.35;;;;;;;25.35;48.32;97482.31;6183591;28;20233;-92
2023/09/11 11:46:33;;;;;;;8.70;7.53;;;;;;;25.55;48.22;97502.41;6190472;28;20232;-92
2023/09/11 11:49:36;;;;;;;8.20;7.38;;;;;;;26.34;46.61;97601.84;6192281;28;20243;-93
2023/09/11 11:52:38;;;;;;;9.30;8.15;;;;;;;26.11;47.10;97541.53;6192746;28;20243;-91
2023/09/11 11:55:41;;;;;;;9.18;7.55;;;;;;;25.77;47.25;97496.47;6175683;28;20224;-92
2023/09/11 11:58:44;;;;;;;11.25;8.20;;;;;;;26.20;47.24;97585.03;6175659;28;20589;-92
2023/09/11 12:01:46;;;;;;;8.93;8.07;;;;;;;25.76;46.91;97499.53;6169740;28;20336;-91
2023/09/11 12:04:53;;;;;;;11.82;7.22;;;;;;;25.73;47.41;97520.09;6191046;28;20236;-92
2023/09/11 12:07:58;;;;;;;7.70;6.93;;;;;;;26.65;47.25;97636.72;6192511;28;20641;-92
2023/09/11 12:11:05;;;;;;;10.77;7.53;;;;;;;25.95;45.63;97524.25;6175084;28;20228;-91
2023/09/11 12:14:15;;;;;;;12.15;7.57;;;;;;;26.99;45.70;97672.75;6186353;28;20416;-92
2023/09/11 12:17:17;;;;;;;8.48;7.68;;;;;;;26.48;46.46;97605.00;6185546;28;20231;-92
2023/09/11 12:20:22;;;;;;;8.40;7.50;;;;;;;26.04;46.41;97543.22;6173981;28;20236;-91
2023/09/11 12:23:25;;;;;;;11.15;7.95;;;;;;;27.09;44.11;97663.28;6189665;28;20803;-93
2023/09/11 12:26:29;;;;;;;9.10;7.35;;;;;;;26.40;44.47;97562.22;6188913;28;20347;-91
2023/09/11 12:29:34;;;;;;;7.68;6.88;;;;;;;26.10;45.44;97517.28;6191049;28;20236;-92
2023/09/11 12:32:39;;;;;;;9.18;6.57;;;;;;;27.05;44.27;97638.56;6190743;28;20729;-92
2023/09/11 12:35:51;;;;;;;6.85;6.15;;;;;;;26.03;44.31;97490.56;6190585;28;20314;-91
2023/09/11 12:39:07;;;;;;;8.10;6.75;;;;;;;26.98;42.58;97613.75;6170874;28;20229;-92
2023/09/11 12:42:13;;;;;;;7.53;6.78;;;;;;;26.94;43.00;97619.13;6174974;28;20232;-91
2023/09/11 12:45:19;;;;;;;8.40;6.20;;;;;;;25.82;42.29;97455.28;6188913;28;20216;-91
2023/09/11 12:48:26;;;;;;;7.13;5.78;;;;;;;26.09;42.36;97493.84;6191181;28;20729;-91
2023/09/11 12:51:33;;;;;;;7.57;6.22;;;;;;;26.75;42.37;97617.09;6189365;28;20229;-93
2023/09/11 12:54:36;;;;;;;13.95;6.95;;;;;;;26.04;41.90;97475.00;6174290;28;20227;-91
2023/09/11 12:57:40;;;;;;;9.55;6.72;;;;;;;26.63;43.84;97564.41;6190073;28;20243;-91
2023/09/11 13:00:48;;;;;;;6.82;6.13;;;;;;;26.92;42.30;97585.09;6196810;28;20228;-88
2023/09/11 13:03:51;;;;;;;8.07;6.18;;;;;;;26.02;40.39;97439.06;6203552;28;20808;-90
2023/09/11 13:06:54;;;;;;;11.88;6.38;;;;;;;26.17;40.64;97439.09;6188220;28;20236;-89
2023/09/11 13:09:56;;;;;;;6.43;5.82;;;;;;;26.40;41.55;97490.38;6171208;28;20483;-92
2023/09/11 13:12:58;;;;;;;8.73;6.13;;;;;;;26.45;41.48;97482.78;6187336;28;20232;-93
2023/09/11 13:16:00;;;;;;;7.90;5.97;;;;;;;27.32;42.11;97642.41;6180091;28;20616;-92
2023/09/11 13:19:02;;;;;;;6.20;5.60;;;;;;;27.29;41.69;97642.31;6184230;28;20259;-93
2023/09/11 13:22:04;;;;;;;6.88;5.50;;;;;;;26.54;40.81;97529.03;6171809;28;20233;-92
2023/09/11 13:25:07;;;;;;;9.73;6.43;;;;;;;26.05;40.12;97435.63;6189737;28;20228;-92
2023/09/11 13:28:09;;;;;;;6.30;5.70;;;;;;;26.24;39.60;97424.81;6188926;28;20244;-93
2023/09/11 13:31:11;;;;;;;9.02;5.93;;;;;;;26.54;40.90;97477.13;6183446;28;20236;-92
2023/09/11 13:34:13;;;;;;;7.72;5.20;;;;;;;26.01;40.37;97424.63;6188099;28;20228;-93
2023/09/11 13:37:15;;;;;;;8.13;5.03;;;;;;;26.21;40.43;97477.41;6190622;28;20243;-93
2023/09/11 13:40:17;;;;;;;6.13;5.35;;;;;;;26.87;42.18;97590.81;6187845;28;20240;-93
2023/09/11 13:43:20;;;;;;;8.77;5.38;;;;;;;25.93;41.80;97452.84;6187272;28;20232;-91
2023/09/11 13:46:22;;;;;;;7.68;5.15;;;;;;;26.05;39.84;97443.81;6171543;28;20296;-92
2023/09/11 13:49:25;;;;;;;6.88;5.50;;;;;;;25.75;40.89;97392.31;6188194;28;20286;-93
2023/09/11 13:52:27;;;;;;;7.78;5.65;;;;;;;26.18;40.58;97437.94;6187417;28;20662;-89
2023/09/11 13:55:29;;;;;;;6.78;4.88;;;;;;;25.97;41.44;97421.00;6181820;28;20604;-90
2023/09/11 13:58:31;;;;;;;9.25;5.75;;;;;;;26.67;43.11;97557.09;6192103;28;20252;-90
2023/09/11 14:01:34;;;;;;;6.05;5.45;;;;;;;25.99;43.11;97465.91;6171122;28;20252;-91
2023/09/11 14:04:37;;;;;;;6.10;5.50;;;;;;;25.95;40.13;97434.19;6187096;28;20260;-90
2023/09/11 14:07:40;;;;;;;5.85;5.25;;;;;;;27.31;40.10;97596.25;6171147;28;20732;-90
2023/09/11 14:10:42;;;;;;;6.55;5.45;;;;;;;26.24;39.76;97441.22;6186571;28;20853;-91
2023/09/11 14:13:44;;;;;;;6.00;5.00;;;;;;;27.02;38.05;97544.34;6172165;28;20232;-91